sensor_id;sensor_type;location;lat;lon;timestamp;pressure;altitude;pressure_sealevel;temperature;humidity
75065;BME280;63646;49.110;9.140;2023-02-22T05:02:39;99160.63;;;19.95;53.61
75065;BME280;63646;49.110;9.140;2023-02-22T05:05:05;99160.34;;;19.98;53.26
75065;BME280;63646;49.110;9.140;2023-02-22T05:07:31;99169.03;;;20.00;53.15
75065;BME280;63646;49.110;9.140;2023-02-22T05:09:57;99161.91;;;20.01;53.29
75065;BME280;63646;49.110;9.140;2023-02-22T05:12:22;99152.84;;;20.03;53.10
75065;BME280;63646;49.110;9.140;2023-02-22T05:14:50;99158.81;;;20.06;53.32
75065;BME280;63646;49.110;9.140;2023-02-22T05:17:16;99163.84;;;20.09;53.22
75065;BME280;63646;49.110;9.140;2023-02-22T05:19:41;99157.56;;;20.10;53.03
75065;BME280;63646;49.110;9.140;2023-02-22T05:22:07;99150.59;;;20.09;52.96
75065;BME280;63646;49.110;9.140;2023-02-22T05:24:32;99156.44;;;20.12;53.16
75065;BME280;63646;49.110;9.140;2023-02-22T05:26:59;99159.81;;;20.14;52.82
75065;BME280;63646;49.110;9.140;2023-02-22T05:29:24;99156.72;;;20.19;52.95
75065;BME280;63646;49.110;9.140;2023-02-22T05:31:50;99157.53;;;20.19;52.78
75065;BME280;63646;49.110;9.140;2023-02-22T05:34:16;99154.75;;;20.21;52.41
75065;BME280;63646;49.110;9.140;2023-02-22T05:36:42;99156.44;;;20.22;53.03
75065;BME280;63646;49.110;9.140;2023-02-22T05:39:07;99150.28;;;20.21;52.66
75065;BME280;63646;49.110;9.140;2023-02-22T05:41:33;99137.44;;;20.17;52.71
75065;BME280;63646;49.110;9.140;2023-02-22T05:43:58;99147.75;;;20.20;52.42
75065;BME280;63646;49.110;9.140;2023-02-22T05:46:24;99151.25;;;20.20;53.04
75065;BME280;63646;49.110;9.140;2023-02-22T05:48:49;99150.56;;;20.18;52.68
75065;BME280;63646;49.110;9.140;2023-02-22T05:51:14;99153.47;;;20.25;52.50
75065;BME280;63646;49.110;9.140;2023-02-22T05:53:40;99146.09;;;20.19;52.59
75065;BME280;63646;49.110;9.140;2023-02-22T05:56:06;99153.78;;;20.22;52.59
75065;BME280;63646;49.110;9.140;2023-02-22T05:58:32;99153.47;;;20.25;52.36
75065;BME280;63646;49.110;9.140;2023-02-22T06:00:58;99149.03;;;20.25;52.52
75065;BME280;63646;49.110;9.140;2023-02-22T06:03:23;99152.63;;;20.24;53.17
75065;BME280;63646;49.110;9.140;2023-02-22T06:05:49;99160.03;;;20.31;52.94
75065;BME280;63646;49.110;9.140;2023-02-22T06:08:15;99156.53;;;20.30;52.56
75065;BME280;63646;49.110;9.140;2023-02-22T06:10:42;99161.84;;;20.30;52.72
75065;BME280;63646;49.110;9.140;2023-02-22T06:13:08;99153.47;;;20.25;52.68
75065;BME280;63646;49.110;9.140;2023-02-22T06:15:34;99155.28;;;20.24;53.06
75065;BME280;63646;49.110;9.140;2023-02-22T06:18:00;99153.34;;;20.26;52.76
75065;BME280;63646;49.110;9.140;2023-02-22T06:20:27;99163.53;;;20.31;52.34
75065;BME280;63646;49.110;9.140;2023-02-22T06:22:55;99146.38;;;20.25;52.45
75065;BME280;63646;49.110;9.140;2023-02-22T06:25:24;99153.47;;;20.25;52.29
75065;BME280;63646;49.110;9.140;2023-02-22T06:27:49;99148.31;;;20.23;52.47
75065;BME280;63646;49.110;9.140;2023-02-22T06:30:17;99152.78;;;20.13;49.98
75065;BME280;63646;49.110;9.140;2023-02-22T06:32:43;99154.75;;;20.21;52.32
75065;BME280;63646;49.110;9.140;2023-02-22T06:35:09;99164.06;;;20.25;52.15
75065;BME280;63646;49.110;9.140;2023-02-22T06:37:34;99173.47;;;20.29;52.42
75065;BME280;63646;49.110;9.140;2023-02-22T06:40:00;99166.44;;;20.28;52.52
75065;BME280;63646;49.110;9.140;2023-02-22T06:42:26;99164.06;;;20.25;52.39
75065;BME280;63646;49.110;9.140;2023-02-22T06:44:51;99171.75;;;20.28;52.84
75065;BME280;63646;49.110;9.140;2023-02-22T06:47:17;99163.69;;;20.20;52.69
75065;BME280;63646;49.110;9.140;2023-02-22T06:49:52;99184.34;;;20.26;52.91
75065;BME280;63646;49.110;9.140;2023-02-22T06:52:17;99176.81;;;20.21;53.11
75065;BME280;63646;49.110;9.140;2023-02-22T06:54:43;99186.84;;;20.27;53.04
75065;BME280;63646;49.110;9.140;2023-02-22T06:57:08;99173.47;;;20.19;53.51
75065;BME280;63646;49.110;9.140;2023-02-22T06:59:34;99186.00;;;20.27;53.02
75065;BME280;63646;49.110;9.140;2023-02-22T07:01:59;99202.47;;;20.31;53.10
75065;BME280;63646;49.110;9.140;2023-02-22T07:04:25;99199.69;;;20.32;52.58
75065;BME280;63646;49.110;9.140;2023-02-22T07:06:50;99192.97;;;20.28;53.07
75065;BME280;63646;49.110;9.140;2023-02-22T07:09:16;99197.03;;;20.32;53.26
75065;BME280;63646;49.110;9.140;2023-02-22T07:11:42;99207.78;;;20.31;52.97
75065;BME280;63646;49.110;9.140;2023-02-22T07:14:10;99196.63;;;20.27;53.35
75065;BME280;63646;49.110;9.140;2023-02-22T07:16:36;99199.13;;;20.28;53.31
75065;BME280;63646;49.110;9.140;2023-02-22T07:19:02;99211.97;;;20.33;53.16
75065;BME280;63646;49.110;9.140;2023-02-22T07:21:28;99204.97;;;20.32;53.11
75065;BME280;63646;49.110;9.140;2023-02-22T07:23:55;99204.44;;;20.28;52.92
75065;BME280;63646;49.110;9.140;2023-02-22T07:26:22;99189.78;;;20.24;53.55
75065;BME280;63646;49.110;9.140;2023-02-22T07:28:49;99201.22;;;20.25;53.19
75065;BME280;63646;49.110;9.140;2023-02-22T07:31:15;99207.25;;;20.27;53.47
75065;BME280;63646;49.110;9.140;2023-02-22T07:33:41;99208.78;;;20.30;53.54
75065;BME280;63646;49.110;9.140;2023-02-22T07:36:07;99200.13;;;20.27;53.46
75065;BME280;63646;49.110;9.140;2023-02-22T07:38:32;99214.75;;;20.32;53.38
75065;BME280;63646;49.110;9.140;2023-02-22T07:40:58;99210.28;;;20.32;53.44
75065;BME280;63646;49.110;9.140;2023-02-22T07:43:27;99205.13;;;20.31;53.33
75065;BME280;63646;49.110;9.140;2023-02-22T07:45:54;99201.94;;;20.27;52.96
75065;BME280;63646;49.110;9.140;2023-02-22T07:48:22;99202.22;;;20.24;52.97
75065;BME280;63646;49.110;9.140;2023-02-22T07:50:48;99199.44;;;20.25;53.07
75065;BME280;63646;49.110;9.140;2023-02-22T07:53:22;99201.22;;;20.25;53.33
75065;BME280;63646;49.110;9.140;2023-02-22T07:55:48;99210.00;;;20.35;53.04
75065;BME280;63646;49.110;9.140;2023-02-22T07:58:25;99196.06;;;20.33;52.65
75065;BME280;63646;49.110;9.140;2023-02-22T08:00:52;99199.13;;;20.38;53.05
75065;BME280;63646;49.110;9.140;2023-02-22T08:03:19;99204.69;;;20.35;52.96
75065;BME280;63646;49.110;9.140;2023-02-22T08:05:52;99197.72;;;20.34;52.88
75065;BME280;63646;49.110;9.140;2023-02-22T08:08:17;99210.28;;;20.42;52.75
75065;BME280;63646;49.110;9.140;2023-02-22T08:10:43;99197.44;;;20.37;52.98
75065;BME280;63646;49.110;9.140;2023-02-22T08:13:09;99198.00;;;20.41;52.72
75065;BME280;63646;49.110;9.140;2023-02-22T08:15:37;99200.25;;;20.07;46.54
75065;BME280;63646;49.110;9.140;2023-02-22T08:18:06;99206.69;;;20.14;49.71
75065;BME280;63646;49.110;9.140;2023-02-22T08:20:53;99211.31;;;20.02;48.42
75065;BME280;63646;49.110;9.140;2023-02-22T08:23:21;99195.13;;;19.76;43.89
75065;BME280;63646;49.110;9.140;2023-02-22T08:25:47;99200.56;;;19.74;47.88
75065;BME280;63646;49.110;9.140;2023-02-22T08:28:15;99199.88;;;19.82;50.17
75065;BME280;63646;49.110;9.140;2023-02-22T08:30:41;99201.41;;;19.94;51.65
75065;BME280;63646;49.110;9.140;2023-02-22T08:33:10;99193.31;;;19.96;51.79
75065;BME280;63646;49.110;9.140;2023-02-22T08:35:38;99183.13;;;20.01;51.94
75065;BME280;63646;49.110;9.140;2023-02-22T08:38:05;99199.03;;;20.11;52.26
75065;BME280;63646;49.110;9.140;2023-02-22T08:40:33;99177.38;;;20.06;52.36
75065;BME280;63646;49.110;9.140;2023-02-22T08:43:00;99182.13;;;20.12;51.76
75065;BME280;63646;49.110;9.140;2023-02-22T08:45:26;99178.06;;;20.17;52.06
75065;BME280;63646;49.110;9.140;2023-02-22T08:47:52;99181.81;;;20.24;51.90
75065;BME280;63646;49.110;9.140;2023-02-22T08:50:21;99175.69;;;20.24;50.67
75065;BME280;63646;49.110;9.140;2023-02-22T08:52:51;99191.88;;;20.31;47.29
75065;BME280;63646;49.110;9.140;2023-02-22T08:55:21;99169.59;;;19.94;47.37
75065;BME280;63646;49.110;9.140;2023-02-22T08:57:47;99178.94;;;19.98;49.02
75065;BME280;63646;49.110;9.140;2023-02-22T09:00:16;99187.88;;;20.07;50.52
75065;BME280;63646;49.110;9.140;2023-02-22T09:02:42;99176.81;;;20.12;50.88
75065;BME280;63646;49.110;9.140;2023-02-22T09:05:08;99179.59;;;20.20;50.61
75065;BME280;63646;49.110;9.140;2023-02-22T09:07:34;99189.38;;;20.29;50.53
75065;BME280;63646;49.110;9.140;2023-02-22T09:09:59;99178.22;;;20.25;50.84
75065;BME280;63646;49.110;9.140;2023-02-22T09:12:25;99180.44;;;20.30;50.50
75065;BME280;63646;49.110;9.140;2023-02-22T09:14:50;99180.69;;;20.37;50.47
75065;BME280;63646;49.110;9.140;2023-02-22T09:17:16;99174.56;;;20.36;50.58
75065;BME280;63646;49.110;9.140;2023-02-22T09:19:41;99175.78;;;20.42;50.57
75065;BME280;63646;49.110;9.140;2023-02-22T09:22:07;99167.28;;;20.38;50.69
75065;BME280;63646;49.110;9.140;2023-02-22T09:24:32;99175.91;;;20.50;50.73
75065;BME280;63646;49.110;9.140;2023-02-22T09:26:58;99166.41;;;20.47;50.64
75065;BME280;63646;49.110;9.140;2023-02-22T09:29:26;99166.72;;;20.44;50.72
75065;BME280;63646;49.110;9.140;2023-02-22T09:31:53;99166.56;;;20.46;50.82
75065;BME280;63646;49.110;9.140;2023-02-22T09:34:20;99165.22;;;19.54;40.10
75065;BME280;63646;49.110;9.140;2023-02-22T09:36:48;99168.06;;;18.42;39.02
75065;BME280;63646;49.110;9.140;2023-02-22T09:39:15;99161.03;;;17.89;39.82
75065;BME280;63646;49.110;9.140;2023-02-22T09:42:00;99155.31;;;17.73;39.97
75065;BME280;63646;49.110;9.140;2023-02-22T09:46:53;99153.38;;;17.10;40.81
75065;BME280;63646;49.110;9.140;2023-02-22T09:54:44;99146.56;;;17.72;41.44
75065;BME280;63646;49.110;9.140;2023-02-22T09:57:15;99147.72;;;18.12;43.78
75065;BME280;63646;49.110;9.140;2023-02-22T10:02:34;99153.38;;;18.58;43.98
75065;BME280;63646;49.110;9.140;2023-02-22T10:05:07;99137.16;;;18.73;44.74
75065;BME280;63646;49.110;9.140;2023-02-22T10:10:16;99148.56;;;19.14;47.37
75065;BME280;63646;49.110;9.140;2023-02-22T10:23:02;99129.38;;;19.60;46.91
75065;BME280;63646;49.110;9.140;2023-02-22T10:25:34;99144.34;;;19.71;47.27
75065;BME280;63646;49.110;9.140;2023-02-22T10:28:33;99148.78;;;19.80;47.14
75065;BME280;63646;49.110;9.140;2023-02-22T10:31:06;99139.44;;;19.86;47.33
75065;BME280;63646;49.110;9.140;2023-02-22T10:33:41;99137.91;;;19.93;47.26
75065;BME280;63646;49.110;9.140;2023-02-22T10:36:18;99127.16;;;19.94;47.10
75065;BME280;63646;49.110;9.140;2023-02-22T10:38:54;99138.88;;;20.01;47.11
75065;BME280;63646;49.110;9.140;2023-02-22T10:41:32;99134.28;;;20.03;47.21
75065;BME280;63646;49.110;9.140;2023-02-22T10:43:58;99134.94;;;20.06;47.52
75065;BME280;63646;49.110;9.140;2023-02-22T10:46:27;99127.69;;;20.08;47.60
75065;BME280;63646;49.110;9.140;2023-02-22T10:48:56;99131.44;;;20.15;47.61
75065;BME280;63646;49.110;9.140;2023-02-22T10:51:26;99126.53;;;20.20;47.60
75065;BME280;63646;49.110;9.140;2023-02-22T10:53:58;99124.88;;;20.19;47.47
75065;BME280;63646;49.110;9.140;2023-02-22T10:56:25;99122.06;;;20.20;47.68
75065;BME280;63646;49.110;9.140;2023-02-22T10:59:00;99122.91;;;20.21;47.40
75065;BME280;63646;49.110;9.140;2023-02-22T11:04:11;99122.34;;;20.27;47.58
75065;BME280;63646;49.110;9.140;2023-02-22T11:06:40;99106.84;;;20.22;47.88
75065;BME280;63646;49.110;9.140;2023-02-22T11:09:07;99113.25;;;20.30;48.22
75065;BME280;63646;49.110;9.140;2023-02-22T11:11:35;99108.06;;;20.28;47.93
75065;BME280;63646;49.110;9.140;2023-02-22T11:14:02;99103.75;;;20.27;47.93
75065;BME280;63646;49.110;9.140;2023-02-22T11:16:42;99102.50;;;20.31;47.79
75065;BME280;63646;49.110;9.140;2023-02-22T11:19:25;99108.88;;;20.38;48.00
75065;BME280;63646;49.110;9.140;2023-02-22T11:21:58;99109.88;;;20.37;48.12
75065;BME280;63646;49.110;9.140;2023-02-22T11:24:43;99101.75;;;20.39;48.46
75065;BME280;63646;49.110;9.140;2023-02-22T11:27:21;99104.97;;;20.42;48.42
75065;BME280;63646;49.110;9.140;2023-02-22T11:29:51;99093.25;;;20.35;48.21
75065;BME280;63646;49.110;9.140;2023-02-22T11:32:20;99093.81;;;20.39;48.52
75065;BME280;63646;49.110;9.140;2023-02-22T11:34:47;99080.00;;;20.35;48.64
75065;BME280;63646;49.110;9.140;2023-02-22T11:37:32;99087.41;;;20.32;48.35
75065;BME280;63646;49.110;9.140;2023-02-22T11:42:43;99096.88;;;20.44;48.45
75065;BME280;63646;49.110;9.140;2023-02-22T11:45:12;99088.03;;;20.43;48.58
75065;BME280;63646;49.110;9.140;2023-02-22T11:47:58;99077.03;;;20.38;48.55
75065;BME280;63646;49.110;9.140;2023-02-22T11:53:26;99086.94;;;20.46;48.59
75065;BME280;63646;49.110;9.140;2023-02-22T11:56:37;99077.00;;;20.48;48.61
75065;BME280;63646;49.110;9.140;2023-02-22T12:16:42;99053.00;;;20.49;49.18
75065;BME280;63646;49.110;9.140;2023-02-22T12:19:21;99055.53;;;20.51;49.01
75065;BME280;63646;49.110;9.140;2023-02-22T12:21:56;99053.72;;;20.52;49.21
75065;BME280;63646;49.110;9.140;2023-02-22T12:24:27;99033.31;;;20.42;49.10
75065;BME280;63646;49.110;9.140;2023-02-22T12:27:01;99039.84;;;20.48;49.23
75065;BME280;63646;49.110;9.140;2023-02-22T12:29:42;99040.28;;;20.53;49.33
75065;BME280;63646;49.110;9.140;2023-02-22T12:32:16;99045.44;;;20.55;48.96
75065;BME280;63646;49.110;9.140;2023-02-22T12:34:56;99033.69;;;20.57;49.37
75065;BME280;63646;49.110;9.140;2023-02-22T12:37:31;99037.88;;;20.60;49.25
75065;BME280;63646;49.110;9.140;2023-02-22T12:42:43;99033.94;;;20.64;49.36
75065;BME280;63646;49.110;9.140;2023-02-22T12:59:48;99029.00;;;20.69;49.56
75065;BME280;63646;49.110;9.140;2023-02-22T13:02:16;99025.38;;;20.70;49.64
75065;BME280;63646;49.110;9.140;2023-02-22T13:04:44;99025.38;;;20.70;49.81
75065;BME280;63646;49.110;9.140;2023-02-22T13:15:24;99016.72;;;20.40;42.55
75065;BME280;63646;49.110;9.140;2023-02-22T13:20:56;99018.31;;;19.96;40.54
75065;BME280;63646;49.110;9.140;2023-02-22T13:26:43;99019.31;;;19.85;40.96
75065;BME280;63646;49.110;9.140;2023-02-22T13:29:21;99010.81;;;19.82;40.33
75065;BME280;63646;49.110;9.140;2023-02-22T13:53:55;98993.84;;;20.02;45.96
75065;BME280;63646;49.110;9.140;2023-02-22T13:56:24;98998.69;;;20.07;44.76
75065;BME280;63646;49.110;9.140;2023-02-22T13:58:56;98984.75;;;20.05;45.66
75065;BME280;63646;49.110;9.140;2023-02-22T14:01:46;98995.94;;;19.98;41.22
75065;BME280;63646;49.110;9.140;2023-02-22T14:06:56;98998.31;;;20.01;44.79
75065;BME280;63646;49.110;9.140;2023-02-22T14:09:54;98993.09;;;20.10;45.30
75065;BME280;63646;49.110;9.140;2023-02-22T14:18:19;98994.97;;;20.27;47.37
75065;BME280;63646;49.110;9.140;2023-02-22T14:20:45;98990.66;;;20.26;47.84
75065;BME280;63646;49.110;9.140;2023-02-22T14:28:44;98983.72;;;20.43;48.81
75065;BME280;63646;49.110;9.140;2023-02-22T14:31:17;98977.19;;;20.37;49.50
75065;BME280;63646;49.110;9.140;2023-02-22T14:39:07;98985.16;;;20.37;50.16
75065;BME280;63646;49.110;9.140;2023-02-22T14:41:36;98991.69;;;20.43;50.83
75065;BME280;63646;49.110;9.140;2023-02-22T14:44:03;98984.41;;;20.55;50.83
75065;BME280;63646;49.110;9.140;2023-02-22T14:46:32;98975.56;;;20.54;51.42
75065;BME280;63646;49.110;9.140;2023-02-22T14:49:02;98989.16;;;20.69;51.01
75065;BME280;63646;49.110;9.140;2023-02-22T14:51:36;98988.41;;;20.77;50.61
75065;BME280;63646;49.110;9.140;2023-02-22T14:54:14;98986.47;;;20.79;50.46
75065;BME280;63646;49.110;9.140;2023-02-22T14:57:11;98990.47;;;20.83;50.50
75065;BME280;63646;49.110;9.140;2023-02-22T15:00:20;98984.34;;;20.82;50.23
75065;BME280;63646;49.110;9.140;2023-02-22T15:02:49;98985.16;;;20.83;49.89
75065;BME280;63646;49.110;9.140;2023-02-22T15:05:17;98988.28;;;20.78;49.93
75065;BME280;63646;49.110;9.140;2023-02-22T15:07:54;98987.28;;;20.79;50.20
75065;BME280;63646;49.110;9.140;2023-02-22T15:13:00;98980.16;;;20.80;50.13
75065;BME280;63646;49.110;9.140;2023-02-22T15:15:37;98978.13;;;20.73;49.99
75065;BME280;63646;49.110;9.140;2023-02-22T15:18:16;98990.78;;;20.80;49.82
75065;BME280;63646;49.110;9.140;2023-02-22T15:20:41;98989.94;;;20.79;50.01
75065;BME280;63646;49.110;9.140;2023-02-22T15:23:07;98989.13;;;20.79;49.98
75065;BME280;63646;49.110;9.140;2023-02-22T15:25:34;98988.28;;;20.78;49.91
75065;BME280;63646;49.110;9.140;2023-02-22T15:28:03;98990.25;;;20.76;49.96
75065;BME280;63646;49.110;9.140;2023-02-22T15:30:31;98984.41;;;20.72;50.00
75065;BME280;63646;49.110;9.140;2023-02-22T15:33:10;98993.06;;;20.74;50.31
75065;BME280;63646;49.110;9.140;2023-02-22T15:35:37;98984.41;;;20.72;50.16
75065;BME280;63646;49.110;9.140;2023-02-22T15:38:16;98991.06;;;20.77;49.65
75065;BME280;63646;49.110;9.140;2023-02-22T15:40:42;98991.94;;;20.77;49.86
75065;BME280;63646;49.110;9.140;2023-02-22T15:43:19;98998.22;;;20.76;50.03
75065;BME280;63646;49.110;9.140;2023-02-22T15:45:48;98988.59;;;20.75;50.13
75065;BME280;63646;49.110;9.140;2023-02-22T15:48:15;98980.78;;;20.73;49.76
75065;BME280;63646;49.110;9.140;2023-02-22T15:53:29;98994.19;;;20.72;49.73
75065;BME280;63646;49.110;9.140;2023-02-22T15:55:59;98981.91;;;20.71;49.71
75065;BME280;63646;49.110;9.140;2023-02-22T15:58:26;98982.06;;;20.69;49.78
75065;BME280;63646;49.110;9.140;2023-02-22T16:01:08;98983.56;;;20.72;49.86
75065;BME280;63646;49.110;9.140;2023-02-22T16:03:46;98983.88;;;20.69;49.94
75065;BME280;63646;49.110;9.140;2023-02-22T16:06:27;98986.53;;;20.69;50.06
75065;BME280;63646;49.110;9.140;2023-02-22T16:08:55;98989.88;;;20.71;49.84
75065;BME280;63646;49.110;9.140;2023-02-22T16:11:32;98992.53;;;20.71;49.77
75065;BME280;63646;49.110;9.140;2023-02-22T16:14:04;98982.50;;;20.65;50.10
75065;BME280;63646;49.110;9.140;2023-02-22T16:16:36;98984.91;;;20.58;49.44
75065;BME280;63646;49.110;9.140;2023-02-22T16:19:23;98995.63;;;20.66;50.17
75065;BME280;63646;49.110;9.140;2023-02-22T16:21:52;98991.44;;;20.64;50.16
75065;BME280;63646;49.110;9.140;2023-02-22T16:24:32;98988.63;;;20.65;51.22
75065;BME280;63646;49.110;9.140;2023-02-22T16:29:30;98991.94;;;20.77;52.05
75065;BME280;63646;49.110;9.140;2023-02-22T16:31:55;99002.94;;;20.82;51.95
75065;BME280;63646;49.110;9.140;2023-02-22T16:34:21;98983.28;;;20.75;53.16
75065;BME280;63646;49.110;9.140;2023-02-22T16:36:48;98992.47;;;20.81;53.84
75065;BME280;63646;49.110;9.140;2023-02-22T16:39:29;98993.38;;;20.89;52.98
75065;BME280;63646;49.110;9.140;2023-02-22T16:41:58;98988.34;;;20.86;53.38
75065;BME280;63646;49.110;9.140;2023-02-22T16:44:24;99001.19;;;20.91;53.14
75065;BME280;63646;49.110;9.140;2023-02-22T16:46:51;99001.72;;;20.94;53.40
75065;BME280;63646;49.110;9.140;2023-02-22T16:49:17;98995.19;;;20.89;54.23
75065;BME280;63646;49.110;9.140;2023-02-22T16:51:47;99000.34;;;20.90;54.24
75065;BME280;63646;49.110;9.140;2023-02-22T16:54:25;98997.84;;;20.89;54.09
75065;BME280;63646;49.110;9.140;2023-02-22T16:56:54;99001.94;;;20.83;54.61
75065;BME280;63646;49.110;9.140;2023-02-22T16:59:21;99010.59;;;20.85;55.12
75065;BME280;63646;49.110;9.140;2023-02-22T17:01:46;99004.16;;;20.88;55.25
75065;BME280;63646;49.110;9.140;2023-02-22T17:04:21;99007.25;;;20.83;49.87
75065;BME280;63646;49.110;9.140;2023-02-22T17:06:48;99016.78;;;20.76;54.72
75065;BME280;63646;49.110;9.140;2023-02-22T17:09:13;99017.16;;;20.63;53.73
75065;BME280;63646;49.110;9.140;2023-02-22T17:11:40;99003.50;;;20.58;54.62
75065;BME280;63646;49.110;9.140;2023-02-22T17:14:06;99017.16;;;20.63;54.93
75065;BME280;63646;49.110;9.140;2023-02-22T17:16:32;99013.28;;;20.58;55.31
75065;BME280;63646;49.110;9.140;2023-02-22T17:18:57;99015.88;;;20.67;54.56
75065;BME280;63646;49.110;9.140;2023-02-22T17:21:23;99012.69;;;20.64;55.09
75065;BME280;63646;49.110;9.140;2023-02-22T17:23:48;99027.41;;;20.76;55.76
75065;BME280;63646;49.110;9.140;2023-02-22T17:26:14;99015.66;;;20.79;55.05
75065;BME280;63646;49.110;9.140;2023-02-22T17:28:41;99030.47;;;20.81;55.03
75065;BME280;63646;49.110;9.140;2023-02-22T17:31:16;99029.31;;;20.84;54.61
75065;BME280;63646;49.110;9.140;2023-02-22T17:33:43;99026.81;;;20.82;54.42
75065;BME280;63646;49.110;9.140;2023-02-22T17:36:09;99033.78;;;20.83;54.90
75065;BME280;63646;49.110;9.140;2023-02-22T17:38:34;99023.38;;;20.72;55.00
75065;BME280;63646;49.110;9.140;2023-02-22T17:41:00;99027.41;;;20.76;55.55
75065;BME280;63646;49.110;9.140;2023-02-22T17:43:26;99031.44;;;20.80;54.70
75065;BME280;63646;49.110;9.140;2023-02-22T17:45:52;99033.72;;;20.75;54.11
75065;BME280;63646;49.110;9.140;2023-02-22T17:48:18;99032.81;;;20.66;54.39
75065;BME280;63646;49.110;9.140;2023-02-22T17:50:45;99035.16;;;20.69;54.25
75065;BME280;63646;49.110;9.140;2023-02-22T17:53:20;99036.59;;;20.64;54.08
75065;BME280;63646;49.110;9.140;2023-02-22T17:55:48;99043.44;;;20.66;54.62
75065;BME280;63646;49.110;9.140;2023-02-22T17:58:14;99042.28;;;20.69;54.25
75065;BME280;63646;49.110;9.140;2023-02-22T18:00:44;99038.69;;;20.60;53.83
75065;BME280;63646;49.110;9.140;2023-02-22T18:03:14;99041.19;;;20.62;54.01
75065;BME280;63646;49.110;9.140;2023-02-22T18:05:47;99029.06;;;20.59;54.43
75065;BME280;63646;49.110;9.140;2023-02-22T18:08:13;99044.09;;;20.68;54.00
75065;BME280;63646;49.110;9.140;2023-02-22T18:10:40;99028.19;;;20.31;44.88
75065;BME280;63646;49.110;9.140;2023-02-22T18:13:08;99032.84;;;19.82;41.78
75065;BME280;63646;49.110;9.140;2023-02-22T18:15:34;99033.16;;;19.40;41.39
75065;BME280;63646;49.110;9.140;2023-02-22T18:18:01;99022.16;;;19.06;41.21
75065;BME280;63646;49.110;9.140;2023-02-22T18:20:27;99037.63;;;19.20;43.12
75065;BME280;63646;49.110;9.140;2023-02-22T18:23:06;99023.13;;;19.34;45.26
75065;BME280;63646;49.110;9.140;2023-02-22T18:25:35;99026.75;;;19.52;47.56
75065;BME280;63646;49.110;9.140;2023-02-22T18:28:03;99028.00;;;19.68;49.48
75065;BME280;63646;49.110;9.140;2023-02-22T18:30:30;99030.19;;;19.82;49.24
75065;BME280;63646;49.110;9.140;2023-02-22T18:32:56;99023.78;;;19.85;49.64
75065;BME280;63646;49.110;9.140;2023-02-22T18:35:22;99020.53;;;19.91;50.23
75065;BME280;63646;49.110;9.140;2023-02-22T18:37:47;99026.81;;;19.99;50.30
75065;BME280;63646;49.110;9.140;2023-02-22T18:40:15;99029.69;;;20.06;50.74
75065;BME280;63646;49.110;9.140;2023-02-22T18:42:43;99030.22;;;20.10;50.92
75065;BME280;63646;49.110;9.140;2023-02-22T18:45:09;99029.94;;;20.13;50.67
75065;BME280;63646;49.110;9.140;2023-02-22T18:47:40;99031.94;;;20.11;51.29
75065;BME280;63646;49.110;9.140;2023-02-22T18:50:09;99026.03;;;20.17;50.72
75065;BME280;63646;49.110;9.140;2023-02-22T18:52:35;99039.38;;;20.25;51.42
75065;BME280;63646;49.110;9.140;2023-02-22T18:55:18;99038.56;;;20.24;51.07
75065;BME280;63646;49.110;9.140;2023-02-22T18:57:45;99042.44;;;20.30;51.15
75065;BME280;63646;49.110;9.140;2023-02-22T19:00:19;99040.59;;;20.40;51.14
75065;BME280;63646;49.110;9.140;2023-02-22T19:02:53;99033.97;;;20.54;51.71
75065;BME280;63646;49.110;9.140;2023-02-22T19:05:19;99031.25;;;20.36;51.57
75065;BME280;63646;49.110;9.140;2023-02-22T19:07:45;99029.28;;;20.38;52.22
75065;BME280;63646;49.110;9.140;2023-02-22T19:10:11;99047.56;;;20.51;52.42
75065;BME280;63646;49.110;9.140;2023-02-22T19:12:37;99021.16;;;20.12;45.25
75065;BME280;63646;49.110;9.140;2023-02-22T19:15:03;99043.13;;;19.95;42.31
75065;BME280;63646;49.110;9.140;2023-02-22T19:17:29;99029.47;;;19.99;45.68
75065;BME280;63646;49.110;9.140;2023-02-22T19:19:56;99027.75;;;19.98;49.25
75065;BME280;63646;49.110;9.140;2023-02-22T19:22:21;99027.34;;;20.03;50.25
75065;BME280;63646;49.110;9.140;2023-02-22T19:24:50;99044.19;;;20.12;50.92
75065;BME280;63646;49.110;9.140;2023-02-22T19:27:18;99030.03;;;20.21;50.80
75065;BME280;63646;49.110;9.140;2023-02-22T19:29:44;99038.25;;;20.27;50.65
75065;BME280;63646;49.110;9.140;2023-02-22T19:32:09;99044.63;;;20.44;50.82
75065;BME280;63646;49.110;9.140;2023-02-22T19:34:36;99041.97;;;20.44;50.69
75065;BME280;63646;49.110;9.140;2023-02-22T19:37:03;99040.28;;;20.43;50.97
75065;BME280;63646;49.110;9.140;2023-02-22T19:39:30;99046.84;;;20.49;50.73
75065;BME280;63646;49.110;9.140;2023-02-22T19:41:56;99053.00;;;20.49;51.34
75065;BME280;63646;49.110;9.140;2023-02-22T19:44:23;99040.97;;;20.45;51.25
75065;BME280;63646;49.110;9.140;2023-02-22T19:46:50;99047.41;;;20.43;51.18
75065;BME280;63646;49.110;9.140;2023-02-22T19:49:16;99046.28;;;20.45;50.84
75065;BME280;63646;49.110;9.140;2023-02-22T19:51:42;99051.19;;;20.50;51.22
75065;BME280;63646;49.110;9.140;2023-02-22T19:54:11;99050.47;;;20.48;51.27
75065;BME280;63646;49.110;9.140;2023-02-22T19:56:37;99043.25;;;20.40;50.97
75065;BME280;63646;49.110;9.140;2023-02-22T19:59:05;99052.44;;;20.46;51.42
75065;BME280;63646;49.110;9.140;2023-02-22T20:01:34;99056.63;;;20.48;51.48
75065;BME280;63646;49.110;9.140;2023-02-22T20:04:10;99051.59;;;20.45;50.97
75065;BME280;63646;49.110;9.140;2023-02-22T20:06:38;99059.72;;;20.44;51.37
75065;BME280;63646;49.110;9.140;2023-02-22T20:09:13;99052.72;;;20.43;51.67
75065;BME280;63646;49.110;9.140;2023-02-22T20:11:39;99054.69;;;20.41;51.37
75065;BME280;63646;49.110;9.140;2023-02-22T20:14:04;99055.53;;;20.41;51.73
75065;BME280;63646;49.110;9.140;2023-02-22T20:16:34;99065.16;;;20.42;51.31
75065;BME280;63646;49.110;9.140;2023-02-22T20:18:59;99058.19;;;20.41;51.91
75065;BME280;63646;49.110;9.140;2023-02-22T20:21:31;99060.13;;;20.39;52.04
75065;BME280;63646;49.110;9.140;2023-02-22T20:24:04;99054.28;;;20.36;51.75